sensor_id;sensor_type;location;lat;lon;timestamp;pressure;altitude;pressure_sealevel;temperature;humidity
40384;BME280;26097;42.366;23.818;2023-05-01T00:01:29;94030.31;;;6.23;100.00
40384;BME280;26097;42.366;23.818;2023-05-01T00:04:31;94029.03;;;6.16;100.00
40384;BME280;26097;42.366;23.818;2023-05-01T00:07:32;94023.13;;;6.13;100.00
40384;BME280;26097;42.366;23.818;2023-05-01T00:10:34;94023.94;;;6.14;100.00
40384;BME280;26097;42.366;23.818;2023-05-01T00:13:35;94025.78;;;6.12;100.00
40384;BME280;26097;42.366;23.818;2023-05-01T00:16:36;94015.44;;;6.12;100.00
40384;BME280;26097;42.366;23.818;2023-05-01T00:19:37;94025.78;;;6.12;100.00
40384;BME280;26097;42.366;23.818;2023-05-01T00:22:37;94031.16;;;6.09;100.00
40384;BME280;26097;42.366;23.818;2023-05-01T00:25:38;94031.66;;;5.99;100.00
40384;BME280;26097;42.366;23.818;2023-05-01T00:28:38;94030.53;;;5.89;100.00
40384;BME280;26097;42.366;23.818;2023-05-01T00:31:39;94026.84;;;5.93;100.00
40384;BME280;26097;42.366;23.818;2023-05-01T00:34:41;94025.09;;;5.94;100.00
40384;BME280;26097;42.366;23.818;2023-05-01T00:37:42;94022.09;;;5.85;100.00
40384;BME280;26097;42.366;23.818;2023-05-01T00:40:43;94028.09;;;5.71;100.00
40384;BME280;26097;42.366;23.818;2023-05-01T00:43:44;94031.13;;;5.64;100.00
40384;BME280;26097;42.366;23.818;2023-05-01T00:46:44;94029.63;;;5.60;100.00
40384;BME280;26097;42.366;23.818;2023-05-01T00:49:45;94030.00;;;5.53;100.00
40384;BME280;26097;42.366;23.818;2023-05-01T00:52:46;94033.66;;;5.49;100.00
40384;BME280;26097;42.366;23.818;2023-05-01T00:55:47;94035.50;;;5.47;100.00
40384;BME280;26097;42.366;23.818;2023-05-01T00:58:49;94034.19;;;5.40;100.00
40384;BME280;26097;42.366;23.818;2023-05-01T01:01:52;94036.38;;;5.32;100.00
40384;BME280;26097;42.366;23.818;2023-05-01T01:04:53;94043.22;;;5.33;100.00
40384;BME280;26097;42.366;23.818;2023-05-01T01:14:33;94052.34;;;5.38;100.00
40384;BME280;26097;42.366;23.818;2023-05-01T01:21:18;94053.19;;;6.00;100.00
40384;BME280;26097;42.366;23.818;2023-05-01T01:24:42;94041.50;;;6.38;100.00
40384;BME280;26097;42.366;23.818;2023-05-01T01:34:32;94059.41;;;7.26;100.00
40384;BME280;26097;42.366;23.818;2023-05-01T01:37:41;94052.72;;;7.64;100.00
40384;BME280;26097;42.366;23.818;2023-05-01T01:43:59;94046.56;;;7.52;100.00
40384;BME280;26097;42.366;23.818;2023-05-01T01:47:03;94055.59;;;7.60;100.00
40384;BME280;26097;42.366;23.818;2023-05-01T01:50:06;94053.53;;;7.65;100.00
40384;BME280;26097;42.366;23.818;2023-05-01T01:53:10;94062.66;;;7.57;100.00
40384;BME280;26097;42.366;23.818;2023-05-01T01:56:13;94049.97;;;7.53;100.00
40384;BME280;26097;42.366;23.818;2023-05-01T01:59:15;94045.66;;;7.66;100.00
40384;BME280;26097;42.366;23.818;2023-05-01T02:02:18;94052.28;;;7.57;100.00
40384;BME280;26097;42.366;23.818;2023-05-01T02:05:22;94049.69;;;7.30;100.00
40384;BME280;26097;42.366;23.818;2023-05-01T02:08:28;94046.50;;;7.12;100.00
40384;BME280;26097;42.366;23.818;2023-05-01T02:11:30;94042.09;;;6.99;100.00
40384;BME280;26097;42.366;23.818;2023-05-01T02:14:32;94047.22;;;6.86;100.00
40384;BME280;26097;42.366;23.818;2023-05-01T02:17:34;94046.75;;;6.80;100.00
40384;BME280;26097;42.366;23.818;2023-05-01T02:20:36;94044.81;;;6.69;100.00
40384;BME280;26097;42.366;23.818;2023-05-01T02:23:37;94049.34;;;6.65;100.00
40384;BME280;26097;42.366;23.818;2023-05-01T02:26:42;94055.66;;;6.61;100.00
40384;BME280;26097;42.366;23.818;2023-05-01T02:29:42;94053.25;;;6.58;100.00
40384;BME280;26097;42.366;23.818;2023-05-01T02:32:43;94046.22;;;6.60;100.00
40384;BME280;26097;42.366;23.818;2023-05-01T02:35:44;94058.63;;;6.55;100.00
40384;BME280;26097;42.366;23.818;2023-05-01T02:38:46;94049.28;;;6.52;100.00
40384;BME280;26097;42.366;23.818;2023-05-01T02:41:51;94050.66;;;6.43;100.00
40384;BME280;26097;42.366;23.818;2023-05-01T02:44:56;94047.53;;;6.38;100.00
40384;BME280;26097;42.366;23.818;2023-05-01T02:47:58;94050.00;;;6.25;100.00
40384;BME280;26097;42.366;23.818;2023-05-01T02:51:00;94051.28;;;6.18;100.00
40384;BME280;26097;42.366;23.818;2023-05-01T02:54:01;94051.00;;;6.08;100.00
40384;BME280;26097;42.366;23.818;2023-05-01T02:57:03;94054.88;;;6.01;100.00
40384;BME280;26097;42.366;23.818;2023-05-01T03:00:05;94047.78;;;6.05;100.00
40384;BME280;26097;42.366;23.818;2023-05-01T03:03:08;94057.06;;;5.93;100.00
40384;BME280;26097;42.366;23.818;2023-05-01T03:06:08;94058.94;;;5.75;100.00
40384;BME280;26097;42.366;23.818;2023-05-01T03:09:09;94063.31;;;5.58;100.00
40384;BME280;26097;42.366;23.818;2023-05-01T03:12:10;94071.69;;;5.47;100.00
40384;BME280;26097;42.366;23.818;2023-05-01T03:15:11;94072.59;;;5.46;100.00
40384;BME280;26097;42.366;23.818;2023-05-01T03:18:12;94074.63;;;5.41;100.00
40384;BME280;26097;42.366;23.818;2023-05-01T03:21:12;94075.72;;;5.37;100.00
40384;BME280;26097;42.366;23.818;2023-05-01T03:24:13;94073.03;;;5.38;100.00
40384;BME280;26097;42.366;23.818;2023-05-01T03:27:13;94079.22;;;5.36;100.00
40384;BME280;26097;42.366;23.818;2023-05-01T03:30:13;94079.53;;;5.29;100.00
40384;BME280;26097;42.366;23.818;2023-05-01T03:33:14;94085.81;;;5.25;100.00
40384;BME280;26097;42.366;23.818;2023-05-01T03:36:16;94082.31;;;5.26;100.00
40384;BME280;26097;42.366;23.818;2023-05-01T03:39:17;94078.00;;;5.57;100.00
40384;BME280;26097;42.366;23.818;2023-05-01T03:42:17;94076.53;;;6.14;100.00
40384;BME280;26097;42.366;23.818;2023-05-01T03:45:17;94069.16;;;6.52;100.00
40384;BME280;26097;42.366;23.818;2023-05-01T03:48:18;94083.84;;;6.37;100.00
40384;BME280;26097;42.366;23.818;2023-05-01T03:51:19;94081.28;;;5.92;100.00
40384;BME280;26097;42.366;23.818;2023-05-01T03:54:19;94086.41;;;5.77;100.00
40384;BME280;26097;42.366;23.818;2023-05-01T03:57:20;94091.44;;;5.64;100.00
40384;BME280;26097;42.366;23.818;2023-05-01T04:00:22;94090.53;;;5.49;100.00
40384;BME280;26097;42.366;23.818;2023-05-01T04:03:22;94092.19;;;5.66;100.00
40384;BME280;26097;42.366;23.818;2023-05-01T04:06:23;94105.28;;;5.63;100.00
40384;BME280;26097;42.366;23.818;2023-05-01T04:09:23;94097.22;;;5.84;100.00
40384;BME280;26097;42.366;23.818;2023-05-01T04:12:23;94105.72;;;6.02;100.00
40384;BME280;26097;42.366;23.818;2023-05-01T04:15:24;94106.41;;;6.20;100.00
40384;BME280;26097;42.366;23.818;2023-05-01T04:18:24;94097.66;;;6.52;100.00
40384;BME280;26097;42.366;23.818;2023-05-01T04:21:24;94105.22;;;6.55;100.00
40384;BME280;26097;42.366;23.818;2023-05-01T04:24:25;94114.47;;;6.45;100.00
40384;BME280;26097;42.366;23.818;2023-05-01T04:27:25;94117.25;;;6.56;100.00
40384;BME280;26097;42.366;23.818;2023-05-01T04:30:26;94109.03;;;6.78;100.00
40384;BME280;26097;42.366;23.818;2023-05-01T04:33:26;94108.72;;;6.97;100.00
40384;BME280;26097;42.366;23.818;2023-05-01T04:36:27;94107.19;;;7.22;100.00
40384;BME280;26097;42.366;23.818;2023-05-01T04:39:28;94112.38;;;7.37;100.00
40384;BME280;26097;42.366;23.818;2023-05-01T04:42:32;94108.06;;;7.50;100.00
40384;BME280;26097;42.366;23.818;2023-05-01T04:45:32;94120.97;;;7.65;100.00
40384;BME280;26097;42.366;23.818;2023-05-01T04:48:32;94114.59;;;7.83;100.00
40384;BME280;26097;42.366;23.818;2023-05-01T04:51:33;94115.28;;;8.00;100.00
40384;BME280;26097;42.366;23.818;2023-05-01T04:54:33;94110.75;;;8.17;100.00
40384;BME280;26097;42.366;23.818;2023-05-01T04:57:34;94111.38;;;8.33;100.00
40384;BME280;26097;42.366;23.818;2023-05-01T05:00:34;94113.50;;;8.54;100.00
40384;BME280;26097;42.366;23.818;2023-05-01T05:03:35;94116.44;;;8.75;100.00
40384;BME280;26097;42.366;23.818;2023-05-01T05:06:35;94112.44;;;8.95;100.00
40384;BME280;26097;42.366;23.818;2023-05-01T05:09:35;94113.13;;;9.10;100.00
40384;BME280;26097;42.366;23.818;2023-05-01T05:12:36;94114.84;;;9.36;100.00
40384;BME280;26097;42.366;23.818;2023-05-01T05:15:36;94114.97;;;9.58;100.00
40384;BME280;26097;42.366;23.818;2023-05-01T05:18:37;94119.09;;;9.74;100.00
40384;BME280;26097;42.366;23.818;2023-05-01T05:21:37;94120.13;;;9.96;100.00
40384;BME280;26097;42.366;23.818;2023-05-01T05:24:38;94118.13;;;10.24;100.00
40384;BME280;26097;42.366;23.818;2023-05-01T05:27:38;94128.97;;;10.42;100.00
40384;BME280;26097;42.366;23.818;2023-05-01T05:30:38;94130.56;;;10.67;100.00
40384;BME280;26097;42.366;23.818;2023-05-01T05:33:39;94126.78;;;11.06;100.00
40384;BME280;26097;42.366;23.818;2023-05-01T05:36:39;94124.38;;;11.37;100.00
40384;BME280;26097;42.366;23.818;2023-05-01T05:39:40;94128.75;;;11.59;100.00
40384;BME280;26097;42.366;23.818;2023-05-01T05:42:40;94131.19;;;11.83;100.00
40384;BME280;26097;42.366;23.818;2023-05-01T05:45:41;94130.06;;;12.09;100.00
40384;BME280;26097;42.366;23.818;2023-05-01T05:48:41;94143.84;;;12.32;100.00
40384;BME280;26097;42.366;23.818;2023-05-01T05:51:41;94138.75;;;12.52;100.00
40384;BME280;26097;42.366;23.818;2023-05-01T05:54:42;94135.41;;;12.61;100.00
40384;BME280;26097;42.366;23.818;2023-05-01T05:57:42;94139.09;;;12.80;100.00
40384;BME280;26097;42.366;23.818;2023-05-01T06:00:43;94147.59;;;13.03;100.00
40384;BME280;26097;42.366;23.818;2023-05-01T06:03:43;94149.44;;;13.12;100.00
40384;BME280;26097;42.366;23.818;2023-05-01T06:06:44;94145.91;;;13.23;100.00
40384;BME280;26097;42.366;23.818;2023-05-01T06:09:44;94150.91;;;13.36;100.00
40384;BME280;26097;42.366;23.818;2023-05-01T06:12:44;94157.53;;;13.40;100.00
40384;BME280;26097;42.366;23.818;2023-05-01T06:15:46;94158.19;;;13.54;100.00
40384;BME280;26097;42.366;23.818;2023-05-01T06:18:47;94160.13;;;13.62;100.00
40384;BME280;26097;42.366;23.818;2023-05-01T06:21:47;94157.69;;;13.80;100.00
40384;BME280;26097;42.366;23.818;2023-05-01T06:24:47;94164.59;;;13.91;100.00
40384;BME280;26097;42.366;23.818;2023-05-01T06:27:48;94165.19;;;14.04;100.00
40384;BME280;26097;42.366;23.818;2023-05-01T06:30:49;94159.66;;;13.97;100.00
40384;BME280;26097;42.366;23.818;2023-05-01T06:33:49;94166.97;;;14.13;100.00
40384;BME280;26097;42.366;23.818;2023-05-01T06:36:50;94166.84;;;14.25;100.00
40384;BME280;26097;42.366;23.818;2023-05-01T06:39:50;94169.06;;;14.39;100.00
40384;BME280;26097;42.366;23.818;2023-05-01T06:42:51;94170.31;;;14.55;100.00
40384;BME280;26097;42.366;23.818;2023-05-01T06:45:51;94170.72;;;14.70;100.00
40384;BME280;26097;42.366;23.818;2023-05-01T06:48:52;94176.50;;;14.93;100.00
40384;BME280;26097;42.366;23.818;2023-05-01T06:51:52;94175.94;;;14.99;100.00
40384;BME280;26097;42.366;23.818;2023-05-01T06:54:52;94170.66;;;15.19;100.00
40384;BME280;26097;42.366;23.818;2023-05-01T06:57:53;94170.50;;;15.11;100.00
40384;BME280;26097;42.366;23.818;2023-05-01T07:00:53;94185.72;;;15.17;83.95
40384;BME280;26097;42.366;23.818;2023-05-01T07:03:53;94179.22;;;15.21;81.90
40384;BME280;26097;42.366;23.818;2023-05-01T07:06:54;94178.75;;;15.36;83.09
40384;BME280;26097;42.366;23.818;2023-05-01T07:09:54;94172.19;;;15.50;82.60
40384;BME280;26097;42.366;23.818;2023-05-01T07:12:55;94181.47;;;15.72;85.32
40384;BME280;26097;42.366;23.818;2023-05-01T07:15:55;94181.31;;;15.55;74.45
40384;BME280;26097;42.366;23.818;2023-05-01T07:18:55;94183.94;;;15.83;69.81
40384;BME280;26097;42.366;23.818;2023-05-01T07:21:56;94182.38;;;15.91;68.46
40384;BME280;26097;42.366;23.818;2023-05-01T07:24:56;94183.38;;;15.90;69.08
40384;BME280;26097;42.366;23.818;2023-05-01T07:27:57;94192.66;;;15.84;65.94
40384;BME280;26097;42.366;23.818;2023-05-01T07:30:59;94188.69;;;15.70;65.61
40384;BME280;26097;42.366;23.818;2023-05-01T07:34:00;94201.56;;;16.01;64.50
40384;BME280;26097;42.366;23.818;2023-05-01T07:37:01;94193.31;;;15.96;66.17
40384;BME280;26097;42.366;23.818;2023-05-01T07:40:02;94204.19;;;16.01;63.08
40384;BME280;26097;42.366;23.818;2023-05-01T07:43:03;94195.25;;;15.94;63.47
40384;BME280;26097;42.366;23.818;2023-05-01T07:46:04;94192.88;;;16.19;63.02
40384;BME280;26097;42.366;23.818;2023-05-01T07:49:05;94194.59;;;16.10;62.15
40384;BME280;26097;42.366;23.818;2023-05-01T07:52:05;94192.53;;;16.32;61.88
40384;BME280;26097;42.366;23.818;2023-05-01T07:55:10;94201.19;;;16.60;60.03
40384;BME280;26097;42.366;23.818;2023-05-01T07:58:10;94193.59;;;16.57;59.08
40384;BME280;26097;42.366;23.818;2023-05-01T08:01:10;94194.31;;;16.85;59.94
40384;BME280;26097;42.366;23.818;2023-05-01T08:04:11;94200.03;;;16.81;59.01
40384;BME280;26097;42.366;23.818;2023-05-01T08:07:11;94195.44;;;16.83;59.86
40384;BME280;26097;42.366;23.818;2023-05-01T08:10:12;94197.06;;;17.20;58.51
40384;BME280;26097;42.366;23.818;2023-05-01T08:13:13;94195.41;;;17.19;59.57
40384;BME280;26097;42.366;23.818;2023-05-01T08:16:13;94202.84;;;17.50;57.59
40384;BME280;26097;42.366;23.818;2023-05-01T08:19:14;94196.81;;;17.66;57.66
40384;BME280;26097;42.366;23.818;2023-05-01T08:22:14;94185.19;;;17.85;55.87
40384;BME280;26097;42.366;23.818;2023-05-01T08:25:14;94196.41;;;17.88;56.08
40384;BME280;26097;42.366;23.818;2023-05-01T08:28:15;94195.88;;;18.10;56.01
40384;BME280;26097;42.366;23.818;2023-05-01T08:31:16;94206.56;;;18.09;53.30
40384;BME280;26097;42.366;23.818;2023-05-01T08:34:18;94197.72;;;17.49;53.47
40384;BME280;26097;42.366;23.818;2023-05-01T08:37:18;94200.13;;;17.68;56.25
40384;BME280;26097;42.366;23.818;2023-05-01T08:40:19;94196.88;;;18.09;55.20
40384;BME280;26097;42.366;23.818;2023-05-01T08:43:20;94201.25;;;17.66;54.57
40384;BME280;26097;42.366;23.818;2023-05-01T08:46:27;94200.22;;;17.50;53.97
40384;BME280;26097;42.366;23.818;2023-05-01T08:49:31;94206.97;;;17.00;54.53
40384;BME280;26097;42.366;23.818;2023-05-01T08:52:32;94194.41;;;16.76;57.23
40384;BME280;26097;42.366;23.818;2023-05-01T08:55:33;94190.72;;;16.68;59.20
40384;BME280;26097;42.366;23.818;2023-05-01T08:58:34;94197.19;;;16.56;58.71
40384;BME280;26097;42.366;23.818;2023-05-01T09:01:35;94193.22;;;16.52;59.60
40384;BME280;26097;42.366;23.818;2023-05-01T09:04:38;94192.06;;;16.54;60.20
40384;BME280;26097;42.366;23.818;2023-05-01T09:07:39;94192.44;;;16.60;59.34
40384;BME280;26097;42.366;23.818;2023-05-01T09:10:43;94200.56;;;16.66;58.78
40384;BME280;26097;42.366;23.818;2023-05-01T09:13:45;94197.97;;;16.93;59.66
40384;BME280;26097;42.366;23.818;2023-05-01T09:16:46;94195.81;;;17.33;58.42
40384;BME280;26097;42.366;23.818;2023-05-01T09:19:47;94205.16;;;17.88;58.60
40384;BME280;26097;42.366;23.818;2023-05-01T09:22:49;94202.81;;;18.11;57.17
40384;BME280;26097;42.366;23.818;2023-05-01T09:25:49;94204.03;;;17.91;58.38
40384;BME280;26097;42.366;23.818;2023-05-01T09:28:50;94201.38;;;17.91;57.94
40384;BME280;26097;42.366;23.818;2023-05-01T09:32:12;94200.59;;;17.98;55.50
40384;BME280;26097;42.366;23.818;2023-05-01T09:35:13;94202.84;;;18.36;57.19
40384;BME280;26097;42.366;23.818;2023-05-01T09:38:25;94199.09;;;18.55;54.55
40384;BME280;26097;42.366;23.818;2023-05-01T09:41:26;94198.56;;;18.44;56.28
40384;BME280;26097;42.366;23.818;2023-05-01T09:44:27;94201.34;;;18.34;57.16
40384;BME280;26097;42.366;23.818;2023-05-01T09:47:28;94199.25;;;18.62;56.35
40384;BME280;26097;42.366;23.818;2023-05-01T09:50:30;94196.16;;;19.08;54.45
40384;BME280;26097;42.366;23.818;2023-05-01T09:53:36;94200.19;;;19.61;53.70
40384;BME280;26097;42.366;23.818;2023-05-01T09:56:45;94189.38;;;19.87;53.03
40384;BME280;26097;42.366;23.818;2023-05-01T10:00:00;94184.59;;;20.77;50.80
40384;BME280;26097;42.366;23.818;2023-05-01T10:03:12;94182.91;;;21.08;50.53
40384;BME280;26097;42.366;23.818;2023-05-01T10:06:25;94177.88;;;21.13;47.07
40384;BME280;26097;42.366;23.818;2023-05-01T10:09:28;94174.19;;;21.52;47.45
40384;BME280;26097;42.366;23.818;2023-05-01T10:12:28;94181.09;;;21.77;47.89
40384;BME280;26097;42.366;23.818;2023-05-01T10:15:37;94184.53;;;22.07;48.18
40384;BME280;26097;42.366;23.818;2023-05-01T10:18:37;94179.84;;;22.61;44.70
40384;BME280;26097;42.366;23.818;2023-05-01T10:21:38;94183.13;;;22.85;44.30
40384;BME280;26097;42.366;23.818;2023-05-01T10:24:39;94169.97;;;21.88;46.06
40384;BME280;26097;42.366;23.818;2023-05-01T10:27:40;94162.66;;;22.05;47.24
40384;BME280;26097;42.366;23.818;2023-05-01T10:30:41;94168.66;;;21.24;47.49
40384;BME280;26097;42.366;23.818;2023-05-01T10:33:46;94170.34;;;21.02;46.66
40384;BME280;26097;42.366;23.818;2023-05-01T10:36:55;94175.66;;;20.78;47.27
40384;BME280;26097;42.366;23.818;2023-05-01T10:39:56;94181.47;;;20.74;44.35
40384;BME280;26097;42.366;23.818;2023-05-01T10:46:26;94164.91;;;21.72;45.42
40384;BME280;26097;42.366;23.818;2023-05-01T11:06:22;94172.84;;;21.87;43.08
40384;BME280;26097;42.366;23.818;2023-05-01T11:15:47;94181.56;;;23.41;43.09
40384;BME280;26097;42.366;23.818;2023-05-01T11:18:47;94181.31;;;23.36;43.72
40384;BME280;26097;42.366;23.818;2023-05-01T11:21:49;94195.34;;;22.43;45.16
40384;BME280;26097;42.366;23.818;2023-05-01T11:24:53;94204.03;;;21.85;43.87
40384;BME280;26097;42.366;23.818;2023-05-01T11:27:54;94210.19;;;22.74;41.68
40384;BME280;26097;42.366;23.818;2023-05-01T11:30:55;94207.28;;;23.12;41.52
40384;BME280;26097;42.366;23.818;2023-05-01T11:33:59;94203.09;;;23.46;39.91
40384;BME280;26097;42.366;23.818;2023-05-01T11:37:00;94201.19;;;23.68;38.85
40384;BME280;26097;42.366;23.818;2023-05-01T11:40:00;94197.78;;;24.17;41.30
40384;BME280;26097;42.366;23.818;2023-05-01T11:43:05;94197.25;;;23.64;39.62
40384;BME280;26097;42.366;23.818;2023-05-01T11:46:06;94190.81;;;23.45;40.17
40384;BME280;26097;42.366;23.818;2023-05-01T11:49:06;94195.50;;;23.43;39.40
40384;BME280;26097;42.366;23.818;2023-05-01T11:52:07;94197.88;;;23.60;39.65
40384;BME280;26097;42.366;23.818;2023-05-01T11:55:08;94186.44;;;23.66;41.05
40384;BME280;26097;42.366;23.818;2023-05-01T11:58:10;94193.09;;;23.84;40.11
40384;BME280;26097;42.366;23.818;2023-05-01T12:01:10;94184.16;;;23.98;41.02
40384;BME280;26097;42.366;23.818;2023-05-01T12:04:21;94198.16;;;24.14;37.67
40384;BME280;26097;42.366;23.818;2023-05-01T12:07:22;94203.19;;;23.09;38.24
40384;BME280;26097;42.366;23.818;2023-05-01T12:10:23;94200.94;;;23.35;37.27
40384;BME280;26097;42.366;23.818;2023-05-01T12:13:24;94211.78;;;23.62;37.50
40384;BME280;26097;42.366;23.818;2023-05-01T12:16:25;94207.50;;;23.61;38.32
40384;BME280;26097;42.366;23.818;2023-05-01T12:19:27;94188.72;;;24.04;40.11
40384;BME280;26097;42.366;23.818;2023-05-01T12:22:27;94188.38;;;24.21;39.58
40384;BME280;26097;42.366;23.818;2023-05-01T12:25:29;94191.28;;;23.56;40.95
40384;BME280;26097;42.366;23.818;2023-05-01T12:28:31;94200.19;;;22.54;41.14
40384;BME280;26097;42.366;23.818;2023-05-01T12:31:32;94210.22;;;23.74;40.23
40384;BME280;26097;42.366;23.818;2023-05-01T12:34:32;94207.00;;;24.14;37.40
40384;BME280;26097;42.366;23.818;2023-05-01T12:37:33;94200.84;;;22.78;38.63
40384;BME280;26097;42.366;23.818;2023-05-01T12:40:34;94193.69;;;23.50;41.73
40384;BME280;26097;42.366;23.818;2023-05-01T12:43:35;94208.06;;;23.06;41.15
40384;BME280;26097;42.366;23.818;2023-05-01T12:46:37;94211.50;;;23.00;40.96
40384;BME280;26097;42.366;23.818;2023-05-01T12:49:37;94209.78;;;21.73;42.30
40384;BME280;26097;42.366;23.818;2023-05-01T12:52:38;94209.75;;;21.43;42.45
40384;BME280;26097;42.366;23.818;2023-05-01T12:55:46;94208.22;;;22.09;42.01
40384;BME280;26097;42.366;23.818;2023-05-01T12:58:48;94206.91;;;22.35;39.82
40384;BME280;26097;42.366;23.818;2023-05-01T13:01:59;94203.28;;;23.23;39.88
40384;BME280;26097;42.366;23.818;2023-05-01T13:05:08;94202.75;;;23.91;40.67
40384;BME280;26097;42.366;23.818;2023-05-01T13:08:08;94207.78;;;22.79;42.78
40384;BME280;26097;42.366;23.818;2023-05-01T13:11:14;94213.81;;;21.16;44.58
40384;BME280;26097;42.366;23.818;2023-05-01T13:14:15;94221.88;;;20.44;46.33
40384;BME280;26097;42.366;23.818;2023-05-01T13:20:25;94223.00;;;19.62;48.55
40384;BME280;26097;42.366;23.818;2023-05-01T13:23:28;94227.03;;;19.24;50.72
40384;BME280;26097;42.366;23.818;2023-05-01T13:26:30;94238.41;;;18.92;50.55
40384;BME280;26097;42.366;23.818;2023-05-01T13:29:32;94224.72;;;18.88;49.78
40384;BME280;26097;42.366;23.818;2023-05-01T13:32:32;94234.59;;;18.86;49.73
40384;BME280;26097;42.366;23.818;2023-05-01T13:35:34;94235.28;;;18.96;50.23
40384;BME280;26097;42.366;23.818;2023-05-01T13:38:44;94239.09;;;19.02;50.41
40384;BME280;26097;42.366;23.818;2023-05-01T13:41:45;94235.63;;;19.10;50.82
40384;BME280;26097;42.366;23.818;2023-05-01T13:44:55;94235.28;;;18.96;51.79
40384;BME280;26097;42.366;23.818;2023-05-01T13:47:56;94226.38;;;19.06;51.85
40384;BME280;26097;42.366;23.818;2023-05-01T13:50:57;94227.34;;;18.96;51.29
40384;BME280;26097;42.366;23.818;2023-05-01T13:53:57;94227.94;;;19.65;49.17
40384;BME280;26097;42.366;23.818;2023-05-01T13:56:59;94222.59;;;20.61;46.98
40384;BME280;26097;42.366;23.818;2023-05-01T14:00:00;94218.88;;;21.25;46.19
40384;BME280;26097;42.366;23.818;2023-05-01T14:03:00;94213.22;;;21.59;45.70
40384;BME280;26097;42.366;23.818;2023-05-01T14:06:02;94209.03;;;22.09;44.78
40384;BME280;26097;42.366;23.818;2023-05-01T14:09:03;94210.22;;;22.07;44.07
40384;BME280;26097;42.366;23.818;2023-05-01T14:12:04;94210.88;;;22.09;44.46
40384;BME280;26097;42.366;23.818;2023-05-01T14:15:08;94214.63;;;22.00;43.33
40384;BME280;26097;42.366;23.818;2023-05-01T14:18:10;94226.06;;;22.00;42.10
40384;BME280;26097;42.366;23.818;2023-05-01T14:21:16;94227.44;;;21.28;43.79
40384;BME280;26097;42.366;23.818;2023-05-01T14:24:17;94217.22;;;21.78;43.07
40384;BME280;26097;42.366;23.818;2023-05-01T14:27:18;94227.72;;;21.71;43.58
40384;BME280;26097;42.366;23.818;2023-05-01T14:30:33;94230.50;;;20.69;44.88
40384;BME280;26097;42.366;23.818;2023-05-01T14:33:40;94244.19;;;19.45;46.37
40384;BME280;26097;42.366;23.818;2023-05-01T14:36:40;94233.66;;;19.29;48.22
40384;BME280;26097;42.366;23.818;2023-05-01T14:39:42;94231.66;;;19.14;49.49
40384;BME280;26097;42.366;23.818;2023-05-01T14:42:43;94235.31;;;19.13;49.54
40384;BME280;26097;42.366;23.818;2023-05-01T14:45:44;94249.16;;;19.15;49.31
40384;BME280;26097;42.366;23.818;2023-05-01T14:48:45;94244.28;;;18.52;50.89
40384;BME280;26097;42.366;23.818;2023-05-01T14:51:46;94244.25;;;18.36;50.64
40384;BME280;26097;42.366;23.818;2023-05-01T14:54:47;94252.59;;;18.15;50.88
40384;BME280;26097;42.366;23.818;2023-05-01T14:57:47;94254.78;;;17.93;51.63
40384;BME280;26097;42.366;23.818;2023-05-01T15:00:48;94253.97;;;17.66;53.34
40384;BME280;26097;42.366;23.818;2023-05-01T15:03:48;94256.31;;;17.42;54.11
40384;BME280;26097;42.366;23.818;2023-05-01T15:06:48;94256.34;;;17.24;54.10
40384;BME280;26097;42.366;23.818;2023-05-01T15:09:49;94258.63;;;17.19;54.43
40384;BME280;26097;42.366;23.818;2023-05-01T15:12:52;94253.03;;;17.22;54.93
40384;BME280;26097;42.366;23.818;2023-05-01T15:15:53;94261.19;;;17.11;55.38
40384;BME280;26097;42.366;23.818;2023-05-01T15:18:53;94256.84;;;17.02;54.70
40384;BME280;26097;42.366;23.818;2023-05-01T15:21:54;94266.97;;;16.78;55.03
40384;BME280;26097;42.366;23.818;2023-05-01T15:24:54;94265.44;;;16.58;54.99
40384;BME280;26097;42.366;23.818;2023-05-01T15:27:55;94265.50;;;16.48;56.04
40384;BME280;26097;42.366;23.818;2023-05-01T15:30:56;94260.03;;;16.41;56.94
40384;BME280;26097;42.366;23.818;2023-05-01T15:33:56;94267.06;;;16.22;58.82
40384;BME280;26097;42.366;23.818;2023-05-01T15:36:57;94264.56;;;16.21;58.37
40384;BME280;26097;42.366;23.818;2023-05-01T15:39:57;94263.84;;;16.47;57.49
40384;BME280;26097;42.366;23.818;2023-05-01T15:42:58;94261.25;;;16.65;58.71
40384;BME280;26097;42.366;23.818;2023-05-01T15:45:58;94264.78;;;16.74;58.66
40384;BME280;26097;42.366;23.818;2023-05-01T15:48:59;94265.53;;;16.84;58.70
40384;BME280;26097;42.366;23.818;2023-05-01T15:52:00;94257.25;;;16.97;57.92
40384;BME280;26097;42.366;23.818;2023-05-01T15:55:04;94260.19;;;16.94;57.77
40384;BME280;26097;42.366;23.818;2023-05-01T15:58:05;94255.84;;;16.84;58.65
40384;BME280;26097;42.366;23.818;2023-05-01T16:01:05;94251.94;;;16.70;59.05
40384;BME280;26097;42.366;23.818;2023-05-01T16:04:06;94262.06;;;16.65;59.47
40384;BME280;26097;42.366;23.818;2023-05-01T16:07:07;94259.66;;;16.54;60.74
40384;BME280;26097;42.366;23.818;2023-05-01T16:10:08;94257.09;;;16.44;60.00
40384;BME280;26097;42.366;23.818;2023-05-01T16:13:09;94258.81;;;16.35;61.49
40384;BME280;26097;42.366;23.818;2023-05-01T16:16:11;94263.72;;;16.20;61.68
40384;BME280;26097;42.366;23.818;2023-05-01T16:19:14;94260.22;;;16.11;61.97
40384;BME280;26097;42.366;23.818;2023-05-01T16:22:16;94264.97;;;15.98;62.99
40384;BME280;26097;42.366;23.818;2023-05-01T16:25:16;94269.00;;;15.82;62.76
40384;BME280;26097;42.366;23.818;2023-05-01T16:28:17;94274.44;;;15.71;63.70
40384;BME280;26097;42.366;23.818;2023-05-01T16:31:18;94275.31;;;15.52;65.07
40384;BME280;26097;42.366;23.818;2023-05-01T16:34:22;94273.13;;;15.37;65.21
40384;BME280;26097;42.366;23.818;2023-05-01T16:37:24;94273.56;;;15.23;65.50